sensor_id;sensor_type;location;lat;lon;timestamp;temperature;humidity
14517;DHT22;7344;50.864;4.362;2023-11-18T00:00:08;8.90;99.90
14517;DHT22;7344;50.864;4.362;2023-11-18T00:02:39;8.90;99.90
14517;DHT22;7344;50.864;4.362;2023-11-18T00:05:05;8.90;99.90
14517;DHT22;7344;50.864;4.362;2023-11-18T00:07:32;8.90;99.90
14517;DHT22;7344;50.864;4.362;2023-11-18T00:09:58;8.90;99.90
14517;DHT22;7344;50.864;4.362;2023-11-18T00:12:24;8.90;99.90
14517;DHT22;7344;50.864;4.362;2023-11-18T00:14:50;8.90;99.90
14517;DHT22;7344;50.864;4.362;2023-11-18T00:17:15;8.90;99.90
14517;DHT22;7344;50.864;4.362;2023-11-18T00:19:41;8.80;99.90
14517;DHT22;7344;50.864;4.362;2023-11-18T00:22:10;8.70;99.90
14517;DHT22;7344;50.864;4.362;2023-11-18T00:24:37;8.70;99.90
14517;DHT22;7344;50.864;4.362;2023-11-18T00:27:04;8.70;99.90
14517;DHT22;7344;50.864;4.362;2023-11-18T00:29:34;8.60;99.90
14517;DHT22;7344;50.864;4.362;2023-11-18T00:32:03;8.50;99.90
14517;DHT22;7344;50.864;4.362;2023-11-18T00:34:29;8.50;99.90
14517;DHT22;7344;50.864;4.362;2023-11-18T00:36:55;8.50;99.90
14517;DHT22;7344;50.864;4.362;2023-11-18T00:39:25;8.50;99.90
14517;DHT22;7344;50.864;4.362;2023-11-18T00:41:51;8.60;99.90
14517;DHT22;7344;50.864;4.362;2023-11-18T00:44:16;8.50;99.90
14517;DHT22;7344;50.864;4.362;2023-11-18T00:46:43;8.50;99.90
14517;DHT22;7344;50.864;4.362;2023-11-18T00:49:09;8.50;99.90
14517;DHT22;7344;50.864;4.362;2023-11-18T00:51:36;8.50;99.90
14517;DHT22;7344;50.864;4.362;2023-11-18T00:54:02;8.40;99.90
14517;DHT22;7344;50.864;4.362;2023-11-18T00:56:34;8.40;99.90
14517;DHT22;7344;50.864;4.362;2023-11-18T00:58:59;8.40;99.90
14517;DHT22;7344;50.864;4.362;2023-11-18T01:01:27;8.50;99.90
14517;DHT22;7344;50.864;4.362;2023-11-18T01:03:53;8.50;99.90
14517;DHT22;7344;50.864;4.362;2023-11-18T01:06:19;8.60;99.90
14517;DHT22;7344;50.864;4.362;2023-11-18T01:08:48;8.60;99.90
14517;DHT22;7344;50.864;4.362;2023-11-18T01:11:17;8.60;99.90
14517;DHT22;7344;50.864;4.362;2023-11-18T01:13:50;8.60;99.90
14517;DHT22;7344;50.864;4.362;2023-11-18T01:16:16;8.70;99.90
14517;DHT22;7344;50.864;4.362;2023-11-18T01:18:42;8.70;99.90
14517;DHT22;7344;50.864;4.362;2023-11-18T01:21:08;8.70;99.90
14517;DHT22;7344;50.864;4.362;2023-11-18T01:23:37;8.70;99.90
14517;DHT22;7344;50.864;4.362;2023-11-18T01:26:04;8.70;99.90
14517;DHT22;7344;50.864;4.362;2023-11-18T01:28:39;8.70;99.30
14517;DHT22;7344;50.864;4.362;2023-11-18T01:31:08;8.70;99.90
14517;DHT22;7344;50.864;4.362;2023-11-18T01:33:39;8.70;99.90
14517;DHT22;7344;50.864;4.362;2023-11-18T01:36:09;8.60;99.90
14517;DHT22;7344;50.864;4.362;2023-11-18T01:38:36;8.60;99.90
14517;DHT22;7344;50.864;4.362;2023-11-18T01:41:06;8.60;99.90
14517;DHT22;7344;50.864;4.362;2023-11-18T01:43:33;8.60;99.90
14517;DHT22;7344;50.864;4.362;2023-11-18T01:46:00;8.50;99.90
14517;DHT22;7344;50.864;4.362;2023-11-18T01:48:28;8.50;99.90
14517;DHT22;7344;50.864;4.362;2023-11-18T01:50:56;8.60;99.90
14517;DHT22;7344;50.864;4.362;2023-11-18T01:53:23;8.60;99.90
14517;DHT22;7344;50.864;4.362;2023-11-18T01:55:49;8.60;99.90
14517;DHT22;7344;50.864;4.362;2023-11-18T01:58:16;8.60;99.90
14517;DHT22;7344;50.864;4.362;2023-11-18T02:00:45;8.60;99.90
14517;DHT22;7344;50.864;4.362;2023-11-18T02:03:12;8.40;99.90
14517;DHT22;7344;50.864;4.362;2023-11-18T02:05:38;8.40;99.90
14517;DHT22;7344;50.864;4.362;2023-11-18T02:08:04;8.40;99.90
14517;DHT22;7344;50.864;4.362;2023-11-18T02:10:37;8.40;99.90
14517;DHT22;7344;50.864;4.362;2023-11-18T02:13:27;8.40;99.90
14517;DHT22;7344;50.864;4.362;2023-11-18T02:15:56;8.50;99.90
14517;DHT22;7344;50.864;4.362;2023-11-18T02:18:26;8.50;99.60
14517;DHT22;7344;50.864;4.362;2023-11-18T02:20:57;8.50;97.20
14517;DHT22;7344;50.864;4.362;2023-11-18T02:23:26;8.50;96.00
14517;DHT22;7344;50.864;4.362;2023-11-18T02:25:52;8.50;95.90
14517;DHT22;7344;50.864;4.362;2023-11-18T02:28:18;8.50;97.70
14517;DHT22;7344;50.864;4.362;2023-11-18T02:30:44;8.50;97.20
14517;DHT22;7344;50.864;4.362;2023-11-18T02:33:54;8.50;95.10
14517;DHT22;7344;50.864;4.362;2023-11-18T02:36:36;8.50;93.70
14517;DHT22;7344;50.864;4.362;2023-11-18T02:39:08;8.50;92.90
14517;DHT22;7344;50.864;4.362;2023-11-18T02:41:38;8.60;92.10
14517;DHT22;7344;50.864;4.362;2023-11-18T02:44:06;8.60;91.10
14517;DHT22;7344;50.864;4.362;2023-11-18T02:46:36;8.60;91.20
14517;DHT22;7344;50.864;4.362;2023-11-18T02:49:03;8.60;92.10
14517;DHT22;7344;50.864;4.362;2023-11-18T02:51:29;8.70;90.60
14517;DHT22;7344;50.864;4.362;2023-11-18T02:53:57;8.70;91.40
14517;DHT22;7344;50.864;4.362;2023-11-18T02:56:22;8.60;90.60
14517;DHT22;7344;50.864;4.362;2023-11-18T02:58:48;8.70;91.20
14517;DHT22;7344;50.864;4.362;2023-11-18T03:01:14;8.70;89.80
14517;DHT22;7344;50.864;4.362;2023-11-18T03:03:39;8.70;86.80
14517;DHT22;7344;50.864;4.362;2023-11-18T03:06:05;8.70;90.50
14517;DHT22;7344;50.864;4.362;2023-11-18T03:08:31;8.70;90.20
14517;DHT22;7344;50.864;4.362;2023-11-18T03:10:57;8.80;89.70
14517;DHT22;7344;50.864;4.362;2023-11-18T03:13:24;8.80;84.40
14517;DHT22;7344;50.864;4.362;2023-11-18T03:15:50;8.80;86.00
14517;DHT22;7344;50.864;4.362;2023-11-18T03:18:16;8.80;85.40
14517;DHT22;7344;50.864;4.362;2023-11-18T03:20:41;8.80;86.30
14517;DHT22;7344;50.864;4.362;2023-11-18T03:23:07;8.80;84.40
14517;DHT22;7344;50.864;4.362;2023-11-18T03:25:34;8.80;82.60
14517;DHT22;7344;50.864;4.362;2023-11-18T03:28:00;8.90;83.30
14517;DHT22;7344;50.864;4.362;2023-11-18T03:30:26;8.90;81.40
14517;DHT22;7344;50.864;4.362;2023-11-18T03:32:51;9.00;82.60
14517;DHT22;7344;50.864;4.362;2023-11-18T03:35:17;9.00;78.50
14517;DHT22;7344;50.864;4.362;2023-11-18T03:37:43;9.00;75.50
14517;DHT22;7344;50.864;4.362;2023-11-18T03:40:10;9.00;78.40
14517;DHT22;7344;50.864;4.362;2023-11-18T03:42:35;9.10;82.10
14517;DHT22;7344;50.864;4.362;2023-11-18T03:45:03;9.10;76.70
14517;DHT22;7344;50.864;4.362;2023-11-18T03:47:29;9.00;73.50
14517;DHT22;7344;50.864;4.362;2023-11-18T03:49:55;9.00;77.60
14517;DHT22;7344;50.864;4.362;2023-11-18T03:52:21;9.00;78.30
14517;DHT22;7344;50.864;4.362;2023-11-18T03:54:47;9.00;78.00
14517;DHT22;7344;50.864;4.362;2023-11-18T03:57:12;9.00;79.60
14517;DHT22;7344;50.864;4.362;2023-11-18T03:59:41;8.90;82.10
14517;DHT22;7344;50.864;4.362;2023-11-18T04:02:08;8.90;87.80
14517;DHT22;7344;50.864;4.362;2023-11-18T04:04:34;9.00;88.20
14517;DHT22;7344;50.864;4.362;2023-11-18T04:07:00;9.00;81.30
14517;DHT22;7344;50.864;4.362;2023-11-18T04:09:29;9.00;82.70
14517;DHT22;7344;50.864;4.362;2023-11-18T04:11:55;9.00;85.60
14517;DHT22;7344;50.864;4.362;2023-11-18T04:14:21;9.00;85.50
14517;DHT22;7344;50.864;4.362;2023-11-18T04:16:47;9.00;86.60
14517;DHT22;7344;50.864;4.362;2023-11-18T04:19:12;9.10;85.50
14517;DHT22;7344;50.864;4.362;2023-11-18T04:21:38;9.00;82.80
14517;DHT22;7344;50.864;4.362;2023-11-18T04:24:05;9.00;88.40
14517;DHT22;7344;50.864;4.362;2023-11-18T04:26:31;9.00;89.10
14517;DHT22;7344;50.864;4.362;2023-11-18T04:28:57;9.00;88.80
14517;DHT22;7344;50.864;4.362;2023-11-18T04:31:24;9.00;88.60
14517;DHT22;7344;50.864;4.362;2023-11-18T04:33:50;9.00;84.80
14517;DHT22;7344;50.864;4.362;2023-11-18T04:36:15;9.00;80.80
14517;DHT22;7344;50.864;4.362;2023-11-18T04:38:42;9.00;80.60
14517;DHT22;7344;50.864;4.362;2023-11-18T04:41:08;9.10;85.40
14517;DHT22;7344;50.864;4.362;2023-11-18T04:43:33;9.10;79.70
14517;DHT22;7344;50.864;4.362;2023-11-18T04:45:59;9.10;76.20
14517;DHT22;7344;50.864;4.362;2023-11-18T04:48:25;9.20;76.30
14517;DHT22;7344;50.864;4.362;2023-11-18T04:50:50;9.20;68.80
14517;DHT22;7344;50.864;4.362;2023-11-18T04:53:16;9.20;62.60
14517;DHT22;7344;50.864;4.362;2023-11-18T04:55:42;9.30;65.10
14517;DHT22;7344;50.864;4.362;2023-11-18T04:58:07;9.20;64.90
14517;DHT22;7344;50.864;4.362;2023-11-18T05:00:38;9.30;62.80
14517;DHT22;7344;50.864;4.362;2023-11-18T05:03:05;9.30;60.10
14517;DHT22;7344;50.864;4.362;2023-11-18T05:05:31;9.30;61.00
14517;DHT22;7344;50.864;4.362;2023-11-18T05:07:57;9.30;62.90
14517;DHT22;7344;50.864;4.362;2023-11-18T05:10:23;9.30;61.30
14517;DHT22;7344;50.864;4.362;2023-11-18T05:12:49;9.30;65.90
14517;DHT22;7344;50.864;4.362;2023-11-18T05:15:21;9.40;63.20
14517;DHT22;7344;50.864;4.362;2023-11-18T05:17:53;9.40;67.20
14517;DHT22;7344;50.864;4.362;2023-11-18T05:20:20;9.40;64.00
14517;DHT22;7344;50.864;4.362;2023-11-18T05:22:46;9.50;62.50
14517;DHT22;7344;50.864;4.362;2023-11-18T05:25:12;9.40;62.70
14517;DHT22;7344;50.864;4.362;2023-11-18T05:27:38;9.40;65.90
14517;DHT22;7344;50.864;4.362;2023-11-18T05:30:06;9.40;67.90
14517;DHT22;7344;50.864;4.362;2023-11-18T05:32:33;9.40;69.10
14517;DHT22;7344;50.864;4.362;2023-11-18T05:34:59;9.40;69.00
14517;DHT22;7344;50.864;4.362;2023-11-18T05:37:26;9.40;70.50
14517;DHT22;7344;50.864;4.362;2023-11-18T05:39:54;9.40;71.40
14517;DHT22;7344;50.864;4.362;2023-11-18T05:42:27;9.40;69.50
14517;DHT22;7344;50.864;4.362;2023-11-18T05:44:53;9.30;75.90
14517;DHT22;7344;50.864;4.362;2023-11-18T05:47:25;9.40;76.20
14517;DHT22;7344;50.864;4.362;2023-11-18T05:49:52;9.30;76.40
14517;DHT22;7344;50.864;4.362;2023-11-18T05:52:18;9.30;84.50
14517;DHT22;7344;50.864;4.362;2023-11-18T05:54:46;9.30;82.70
14517;DHT22;7344;50.864;4.362;2023-11-18T05:57:14;9.40;83.30
14517;DHT22;7344;50.864;4.362;2023-11-18T05:59:40;9.40;82.60
14517;DHT22;7344;50.864;4.362;2023-11-18T06:02:05;9.30;83.10
14517;DHT22;7344;50.864;4.362;2023-11-18T06:04:31;9.30;87.80
14517;DHT22;7344;50.864;4.362;2023-11-18T06:06:56;9.30;93.50
14517;DHT22;7344;50.864;4.362;2023-11-18T06:09:22;9.40;89.90
14517;DHT22;7344;50.864;4.362;2023-11-18T06:11:51;9.30;90.10
14517;DHT22;7344;50.864;4.362;2023-11-18T06:14:19;9.30;91.00
14517;DHT22;7344;50.864;4.362;2023-11-18T06:16:44;9.30;91.80
14517;DHT22;7344;50.864;4.362;2023-11-18T06:19:10;9.40;90.30
14517;DHT22;7344;50.864;4.362;2023-11-18T06:21:36;9.40;89.40
14517;DHT22;7344;50.864;4.362;2023-11-18T06:24:02;9.40;91.50
14517;DHT22;7344;50.864;4.362;2023-11-18T06:26:31;9.40;90.90
14517;DHT22;7344;50.864;4.362;2023-11-18T06:28:57;9.40;92.20
14517;DHT22;7344;50.864;4.362;2023-11-18T06:31:23;9.40;91.00
14517;DHT22;7344;50.864;4.362;2023-11-18T06:33:49;9.50;93.20
14517;DHT22;7344;50.864;4.362;2023-11-18T06:38:47;9.40;93.40
14517;DHT22;7344;50.864;4.362;2023-11-18T06:41:16;9.40;92.80
14517;DHT22;7344;50.864;4.362;2023-11-18T06:43:46;9.40;94.30
14517;DHT22;7344;50.864;4.362;2023-11-18T06:46:31;9.40;94.10
14517;DHT22;7344;50.864;4.362;2023-11-18T06:49:01;9.40;94.40
14517;DHT22;7344;50.864;4.362;2023-11-18T06:51:33;9.40;94.60
14517;DHT22;7344;50.864;4.362;2023-11-18T06:54:01;9.40;94.50
14517;DHT22;7344;50.864;4.362;2023-11-18T06:56:29;9.40;96.70
14517;DHT22;7344;50.864;4.362;2023-11-18T06:58:55;9.40;96.60
14517;DHT22;7344;50.864;4.362;2023-11-18T07:01:22;9.40;96.90
14517;DHT22;7344;50.864;4.362;2023-11-18T07:03:49;9.40;97.20
14517;DHT22;7344;50.864;4.362;2023-11-18T07:06:18;9.50;97.80
14517;DHT22;7344;50.864;4.362;2023-11-18T07:08:52;9.50;97.10
14517;DHT22;7344;50.864;4.362;2023-11-18T07:11:19;9.50;98.40
14517;DHT22;7344;50.864;4.362;2023-11-18T07:13:47;9.50;99.90
14517;DHT22;7344;50.864;4.362;2023-11-18T07:16:13;9.50;99.90
14517;DHT22;7344;50.864;4.362;2023-11-18T07:18:40;9.50;99.90
14517;DHT22;7344;50.864;4.362;2023-11-18T07:21:07;9.60;99.90
14517;DHT22;7344;50.864;4.362;2023-11-18T07:23:35;9.60;99.90
14517;DHT22;7344;50.864;4.362;2023-11-18T07:26:19;9.60;99.90
14517;DHT22;7344;50.864;4.362;2023-11-18T07:28:45;9.50;99.90
14517;DHT22;7344;50.864;4.362;2023-11-18T07:31:11;9.50;99.90
14517;DHT22;7344;50.864;4.362;2023-11-18T07:33:37;9.50;99.90
14517;DHT22;7344;50.864;4.362;2023-11-18T07:36:03;9.50;99.90
14517;DHT22;7344;50.864;4.362;2023-11-18T07:38:31;9.50;99.90
14517;DHT22;7344;50.864;4.362;2023-11-18T07:40:59;9.50;99.90
14517;DHT22;7344;50.864;4.362;2023-11-18T07:43:26;9.40;99.90
14517;DHT22;7344;50.864;4.362;2023-11-18T07:45:54;9.40;99.90
14517;DHT22;7344;50.864;4.362;2023-11-18T07:48:20;9.40;99.90
14517;DHT22;7344;50.864;4.362;2023-11-18T07:50:46;9.30;99.90
14517;DHT22;7344;50.864;4.362;2023-11-18T07:53:15;9.30;99.90
14517;DHT22;7344;50.864;4.362;2023-11-18T07:55:41;9.20;99.90
14517;DHT22;7344;50.864;4.362;2023-11-18T07:58:10;9.20;99.90
14517;DHT22;7344;50.864;4.362;2023-11-18T08:00:40;9.10;99.90
14517;DHT22;7344;50.864;4.362;2023-11-18T08:03:09;9.10;99.90
14517;DHT22;7344;50.864;4.362;2023-11-18T08:05:42;8.90;99.90
14517;DHT22;7344;50.864;4.362;2023-11-18T08:08:14;8.90;99.90
14517;DHT22;7344;50.864;4.362;2023-11-18T08:10:43;8.90;99.90
14517;DHT22;7344;50.864;4.362;2023-11-18T08:13:10;8.90;99.90
14517;DHT22;7344;50.864;4.362;2023-11-18T08:15:40;8.90;99.90
14517;DHT22;7344;50.864;4.362;2023-11-18T08:18:07;8.90;99.90
14517;DHT22;7344;50.864;4.362;2023-11-18T08:20:33;8.80;99.90
14517;DHT22;7344;50.864;4.362;2023-11-18T08:22:59;8.80;99.90
14517;DHT22;7344;50.864;4.362;2023-11-18T08:25:25;8.80;99.90
14517;DHT22;7344;50.864;4.362;2023-11-18T08:27:51;8.80;99.90
14517;DHT22;7344;50.864;4.362;2023-11-18T08:30:17;8.80;99.90
14517;DHT22;7344;50.864;4.362;2023-11-18T08:32:45;8.80;99.90
14517;DHT22;7344;50.864;4.362;2023-11-18T08:35:11;8.80;99.90
14517;DHT22;7344;50.864;4.362;2023-11-18T08:37:41;8.80;99.90
14517;DHT22;7344;50.864;4.362;2023-11-18T08:40:11;8.90;99.90
14517;DHT22;7344;50.864;4.362;2023-11-18T08:42:44;8.80;99.90
14517;DHT22;7344;50.864;4.362;2023-11-18T08:45:16;8.80;99.90
14517;DHT22;7344;50.864;4.362;2023-11-18T08:47:43;8.80;99.90
14517;DHT22;7344;50.864;4.362;2023-11-18T08:50:10;8.90;99.90
14517;DHT22;7344;50.864;4.362;2023-11-18T08:52:38;8.90;99.90
14517;DHT22;7344;50.864;4.362;2023-11-18T08:55:10;8.80;99.90
14517;DHT22;7344;50.864;4.362;2023-11-18T08:57:45;8.80;99.90
14517;DHT22;7344;50.864;4.362;2023-11-18T09:00:30;8.90;99.90
14517;DHT22;7344;50.864;4.362;2023-11-18T09:03:25;8.90;99.90
14517;DHT22;7344;50.864;4.362;2023-11-18T09:06:05;8.90;99.90
14517;DHT22;7344;50.864;4.362;2023-11-18T09:08:38;8.90;99.90
14517;DHT22;7344;50.864;4.362;2023-11-18T09:11:05;8.90;99.90
14517;DHT22;7344;50.864;4.362;2023-11-18T09:13:32;8.90;99.90
14517;DHT22;7344;50.864;4.362;2023-11-18T09:16:07;9.00;99.90
14517;DHT22;7344;50.864;4.362;2023-11-18T09:18:38;8.90;99.90
14517;DHT22;7344;50.864;4.362;2023-11-18T09:21:05;8.90;99.90
14517;DHT22;7344;50.864;4.362;2023-11-18T09:23:33;8.90;99.90
14517;DHT22;7344;50.864;4.362;2023-11-18T09:26:03;8.90;99.90
14517;DHT22;7344;50.864;4.362;2023-11-18T09:28:33;8.90;99.90
14517;DHT22;7344;50.864;4.362;2023-11-18T09:31:06;8.90;99.90
14517;DHT22;7344;50.864;4.362;2023-11-18T09:33:37;8.90;99.90
14517;DHT22;7344;50.864;4.362;2023-11-18T09:36:07;8.90;99.90
14517;DHT22;7344;50.864;4.362;2023-11-18T09:38:36;8.90;99.90
14517;DHT22;7344;50.864;4.362;2023-11-18T09:41:04;8.90;99.90
14517;DHT22;7344;50.864;4.362;2023-11-18T09:43:36;8.90;99.90
14517;DHT22;7344;50.864;4.362;2023-11-18T09:46:08;8.90;99.90
14517;DHT22;7344;50.864;4.362;2023-11-18T09:51:08;8.90;99.90
14517;DHT22;7344;50.864;4.362;2023-11-18T09:53:37;8.90;99.90
14517;DHT22;7344;50.864;4.362;2023-11-18T09:56:11;8.90;99.90
14517;DHT22;7344;50.864;4.362;2023-11-18T09:58:50;8.90;99.90
14517;DHT22;7344;50.864;4.362;2023-11-18T10:01:18;9.00;99.90
14517;DHT22;7344;50.864;4.362;2023-11-18T10:03:47;9.00;99.90
14517;DHT22;7344;50.864;4.362;2023-11-18T10:06:14;9.00;99.90
14517;DHT22;7344;50.864;4.362;2023-11-18T10:08:41;9.00;99.90
14517;DHT22;7344;50.864;4.362;2023-11-18T10:11:12;9.00;99.90
14517;DHT22;7344;50.864;4.362;2023-11-18T10:13:39;9.00;99.90
14517;DHT22;7344;50.864;4.362;2023-11-18T10:16:09;8.90;99.90
14517;DHT22;7344;50.864;4.362;2023-11-18T10:18:35;9.00;99.90
14517;DHT22;7344;50.864;4.362;2023-11-18T10:21:02;9.10;99.90
14517;DHT22;7344;50.864;4.362;2023-11-18T10:23:33;9.20;99.90
14517;DHT22;7344;50.864;4.362;2023-11-18T10:26:00;9.20;99.90
14517;DHT22;7344;50.864;4.362;2023-11-18T10:28:34;9.10;99.90
14517;DHT22;7344;50.864;4.362;2023-11-18T10:31:02;9.10;99.90
14517;DHT22;7344;50.864;4.362;2023-11-18T10:33:32;9.10;99.90
14517;DHT22;7344;50.864;4.362;2023-11-18T10:35:59;9.20;99.90
14517;DHT22;7344;50.864;4.362;2023-11-18T10:38:30;9.20;99.90
14517;DHT22;7344;50.864;4.362;2023-11-18T10:40:59;9.20;99.90
14517;DHT22;7344;50.864;4.362;2023-11-18T10:43:28;9.20;99.90
14517;DHT22;7344;50.864;4.362;2023-11-18T10:46:13;9.20;99.90
14517;DHT22;7344;50.864;4.362;2023-11-18T10:48:44;9.20;99.90
14517;DHT22;7344;50.864;4.362;2023-11-18T10:51:10;9.20;99.90
14517;DHT22;7344;50.864;4.362;2023-11-18T10:53:51;9.20;99.90
14517;DHT22;7344;50.864;4.362;2023-11-18T10:56:24;9.30;99.90
14517;DHT22;7344;50.864;4.362;2023-11-18T10:58:59;9.30;99.90
14517;DHT22;7344;50.864;4.362;2023-11-18T11:01:32;9.30;99.90
14517;DHT22;7344;50.864;4.362;2023-11-18T11:03:58;9.30;99.90
14517;DHT22;7344;50.864;4.362;2023-11-18T11:06:25;9.30;99.90
14517;DHT22;7344;50.864;4.362;2023-11-18T11:08:52;9.30;99.90
14517;DHT22;7344;50.864;4.362;2023-11-18T11:11:22;9.30;99.90
14517;DHT22;7344;50.864;4.362;2023-11-18T11:13:57;9.30;99.90
14517;DHT22;7344;50.864;4.362;2023-11-18T11:16:33;9.40;99.90
14517;DHT22;7344;50.864;4.362;2023-11-18T11:19:04;9.40;99.90
14517;DHT22;7344;50.864;4.362;2023-11-18T11:21:43;9.40;99.90
14517;DHT22;7344;50.864;4.362;2023-11-18T11:24:22;9.40;99.90
14517;DHT22;7344;50.864;4.362;2023-11-18T11:27:11;9.50;99.90
14517;DHT22;7344;50.864;4.362;2023-11-18T11:29:57;9.40;99.90
14517;DHT22;7344;50.864;4.362;2023-11-18T11:32:45;9.40;99.90
14517;DHT22;7344;50.864;4.362;2023-11-18T11:35:33;9.50;99.90
14517;DHT22;7344;50.864;4.362;2023-11-18T11:38:02;9.60;99.90
14517;DHT22;7344;50.864;4.362;2023-11-18T11:40:36;9.50;99.90
14517;DHT22;7344;50.864;4.362;2023-11-18T11:43:04;9.50;99.90
14517;DHT22;7344;50.864;4.362;2023-11-18T11:45:35;9.50;99.90
14517;DHT22;7344;50.864;4.362;2023-11-18T11:48:03;9.50;99.90
14517;DHT22;7344;50.864;4.362;2023-11-18T11:53:34;9.50;99.90
14517;DHT22;7344;50.864;4.362;2023-11-18T11:56:05;9.50;99.90
14517;DHT22;7344;50.864;4.362;2023-11-18T11:58:41;9.50;99.90
14517;DHT22;7344;50.864;4.362;2023-11-18T12:01:15;9.50;99.90
14517;DHT22;7344;50.864;4.362;2023-11-18T12:03:44;9.50;99.90
14517;DHT22;7344;50.864;4.362;2023-11-18T12:06:18;9.50;99.90
14517;DHT22;7344;50.864;4.362;2023-11-18T12:08:52;9.50;99.90
14517;DHT22;7344;50.864;4.362;2023-11-18T12:11:19;9.60;99.90
14517;DHT22;7344;50.864;4.362;2023-11-18T12:14:05;9.60;99.90
14517;DHT22;7344;50.864;4.362;2023-11-18T12:17:01;9.70;99.90
14517;DHT22;7344;50.864;4.362;2023-11-18T12:19:39;9.70;99.90
14517;DHT22;7344;50.864;4.362;2023-11-18T12:22:20;9.70;99.90
14517;DHT22;7344;50.864;4.362;2023-11-18T12:35:25;9.90;99.90
14517;DHT22;7344;50.864;4.362;2023-11-18T12:43:00;10.00;99.90
14517;DHT22;7344;50.864;4.362;2023-11-18T12:45:43;9.90;99.90
14517;DHT22;7344;50.864;4.362;2023-11-18T12:48:14;9.90;99.90
14517;DHT22;7344;50.864;4.362;2023-11-18T12:50:43;10.00;99.90
14517;DHT22;7344;50.864;4.362;2023-11-18T12:53:11;10.00;99.90
14517;DHT22;7344;50.864;4.362;2023-11-18T12:55:40;10.00;99.90
14517;DHT22;7344;50.864;4.362;2023-11-18T12:58:07;9.90;99.90
14517;DHT22;7344;50.864;4.362;2023-11-18T13:00:32;9.90;99.90
14517;DHT22;7344;50.864;4.362;2023-11-18T13:03:01;9.90;99.90
14517;DHT22;7344;50.864;4.362;2023-11-18T13:05:26;9.90;99.90
14517;DHT22;7344;50.864;4.362;2023-11-18T13:07:56;9.90;99.90
14517;DHT22;7344;50.864;4.362;2023-11-18T13:10:23;9.90;99.90
14517;DHT22;7344;50.864;4.362;2023-11-18T13:12:49;10.00;99.90
14517;DHT22;7344;50.864;4.362;2023-11-18T13:15:16;10.00;99.90
14517;DHT22;7344;50.864;4.362;2023-11-18T13:18:03;10.00;99.90
14517;DHT22;7344;50.864;4.362;2023-11-18T13:20:32;10.00;99.90
14517;DHT22;7344;50.864;4.362;2023-11-18T13:23:04;10.00;99.90
14517;DHT22;7344;50.864;4.362;2023-11-18T13:25:37;10.10;99.90
14517;DHT22;7344;50.864;4.362;2023-11-18T13:28:10;10.10;99.90
14517;DHT22;7344;50.864;4.362;2023-11-18T13:30:36;10.10;99.90
14517;DHT22;7344;50.864;4.362;2023-11-18T13:33:02;10.10;99.90
14517;DHT22;7344;50.864;4.362;2023-11-18T13:35:27;10.10;99.90
14517;DHT22;7344;50.864;4.362;2023-11-18T13:37:54;10.20;99.90
14517;DHT22;7344;50.864;4.362;2023-11-18T13:40:20;10.10;99.90
14517;DHT22;7344;50.864;4.362;2023-11-18T13:42:46;10.20;99.90
14517;DHT22;7344;50.864;4.362;2023-11-18T13:45:14;10.10;99.90
14517;DHT22;7344;50.864;4.362;2023-11-18T13:47:51;10.10;99.90
14517;DHT22;7344;50.864;4.362;2023-11-18T13:50:20;10.20;99.90
14517;DHT22;7344;50.864;4.362;2023-11-18T13:52:47;10.20;99.90
14517;DHT22;7344;50.864;4.362;2023-11-18T13:55:15;10.20;99.90
14517;DHT22;7344;50.864;4.362;2023-11-18T13:57:43;10.20;99.90
14517;DHT22;7344;50.864;4.362;2023-11-18T14:00:10;10.30;99.90
14517;DHT22;7344;50.864;4.362;2023-11-18T14:02:41;10.30;99.90
14517;DHT22;7344;50.864;4.362;2023-11-18T14:05:18;10.30;99.90
14517;DHT22;7344;50.864;4.362;2023-11-18T14:07:46;10.30;99.90
14517;DHT22;7344;50.864;4.362;2023-11-18T14:10:13;10.30;99.90
14517;DHT22;7344;50.864;4.362;2023-11-18T14:12:39;10.20;99.90
14517;DHT22;7344;50.864;4.362;2023-11-18T14:15:06;10.30;99.90
14517;DHT22;7344;50.864;4.362;2023-11-18T14:17:35;10.30;99.90
14517;DHT22;7344;50.864;4.362;2023-11-18T14:20:01;10.30;99.90
14517;DHT22;7344;50.864;4.362;2023-11-18T14:22:27;10.40;99.90
14517;DHT22;7344;50.864;4.362;2023-11-18T14:24:53;10.30;99.90
14517;DHT22;7344;50.864;4.362;2023-11-18T14:27:19;10.40;99.90
14517;DHT22;7344;50.864;4.362;2023-11-18T14:29:44;10.40;99.90
14517;DHT22;7344;50.864;4.362;2023-11-18T14:32:12;10.50;99.90
14517;DHT22;7344;50.864;4.362;2023-11-18T14:34:39;10.50;99.90
14517;DHT22;7344;50.864;4.362;2023-11-18T14:37:07;10.40;99.90
14517;DHT22;7344;50.864;4.362;2023-11-18T14:39:32;10.40;99.90
14517;DHT22;7344;50.864;4.362;2023-11-18T14:41:58;10.40;99.90
14517;DHT22;7344;50.864;4.362;2023-11-18T14:44:24;10.40;99.90
14517;DHT22;7344;50.864;4.362;2023-11-18T14:46:51;10.50;99.90
14517;DHT22;7344;50.864;4.362;2023-11-18T14:49:17;10.50;99.90
14517;DHT22;7344;50.864;4.362;2023-11-18T14:51:43;10.50;99.90
14517;DHT22;7344;50.864;4.362;2023-11-18T14:54:09;10.50;99.90
14517;DHT22;7344;50.864;4.362;2023-11-18T14:56:34;10.50;99.90
14517;DHT22;7344;50.864;4.362;2023-11-18T14:59:00;10.50;99.90
14517;DHT22;7344;50.864;4.362;2023-11-18T15:01:26;10.60;99.90
14517;DHT22;7344;50.864;4.362;2023-11-18T15:03:52;10.60;99.90
14517;DHT22;7344;50.864;4.362;2023-11-18T15:06:27;10.60;99.90
14517;DHT22;7344;50.864;4.362;2023-11-18T15:08:52;10.60;99.90
14517;DHT22;7344;50.864;4.362;2023-11-18T15:11:23;10.60;99.90
14517;DHT22;7344;50.864;4.362;2023-11-18T15:13:50;10.60;99.90
14517;DHT22;7344;50.864;4.362;2023-11-18T15:16:18;10.50;99.90
14517;DHT22;7344;50.864;4.362;2023-11-18T15:18:44;10.60;99.90
14517;DHT22;7344;50.864;4.362;2023-11-18T15:21:12;10.60;99.90
14517;DHT22;7344;50.864;4.362;2023-11-18T15:23:40;10.60;99.90
14517;DHT22;7344;50.864;4.362;2023-11-18T15:26:07;10.60;99.90
14517;DHT22;7344;50.864;4.362;2023-11-18T15:28:34;10.70;99.90
14517;DHT22;7344;50.864;4.362;2023-11-18T15:31:00;10.70;99.90
14517;DHT22;7344;50.864;4.362;2023-11-18T15:33:28;10.70;99.90
14517;DHT22;7344;50.864;4.362;2023-11-18T15:35:53;10.70;99.90
14517;DHT22;7344;50.864;4.362;2023-11-18T15:38:20;10.70;99.90
14517;DHT22;7344;50.864;4.362;2023-11-18T15:40:48;10.80;99.90
14517;DHT22;7344;50.864;4.362;2023-11-18T15:43:15;10.80;99.90
14517;DHT22;7344;50.864;4.362;2023-11-18T15:45:42;10.90;99.90
14517;DHT22;7344;50.864;4.362;2023-11-18T15:48:10;11.00;99.90
14517;DHT22;7344;50.864;4.362;2023-11-18T15:50:36;11.00;99.90
14517;DHT22;7344;50.864;4.362;2023-11-18T15:53:03;10.90;99.90
14517;DHT22;7344;50.864;4.362;2023-11-18T15:55:31;10.90;99.90
14517;DHT22;7344;50.864;4.362;2023-11-18T15:57:57;10.90;99.90
14517;DHT22;7344;50.864;4.362;2023-11-18T16:00:24;11.00;99.90
14517;DHT22;7344;50.864;4.362;2023-11-18T16:02:57;11.00;99.90
14517;DHT22;7344;50.864;4.362;2023-11-18T16:05:25;11.00;99.90
14517;DHT22;7344;50.864;4.362;2023-11-18T16:07:52;11.10;99.90
14517;DHT22;7344;50.864;4.362;2023-11-18T16:10:23;11.10;99.90
14517;DHT22;7344;50.864;4.362;2023-11-18T16:12:50;11.20;99.90
14517;DHT22;7344;50.864;4.362;2023-11-18T16:15:20;11.20;99.90
14517;DHT22;7344;50.864;4.362;2023-11-18T16:17:47;11.20;99.90
14517;DHT22;7344;50.864;4.362;2023-11-18T16:20:15;11.20;99.90
14517;DHT22;7344;50.864;4.362;2023-11-18T16:22:45;11.30;99.90
14517;DHT22;7344;50.864;4.362;2023-11-18T16:25:23;11.30;99.90
14517;DHT22;7344;50.864;4.362;2023-11-18T16:27:51;11.30;99.90
14517;DHT22;7344;50.864;4.362;2023-11-18T16:30:18;11.30;99.90